Bridgehampton, New York
Current Conditions -  °F | °C
As of 12:53 PM on Sunday 21 Dec 2014 (Local Time) from KFOK Reporting Station
Light Rain Light Rain  
Wind Chill: -2°   Ceiling: 500
Heat Index:   Visibility: 3mi
Dew Point:   Wind: 10mph
Humidity: 89%   Direction: 330°NNW
Pressure: 30.27"   Gusts: NA
Location:  40.94°N, 72.3°W
Report Text: KFOK 211753Z 33009KT 3SM -RA BR OVC005 02/01 A3027 RMK AO2 RAB29 CIG 003V009 SLP250 P0001 60001 T00220006 10028 20006 56009
Loading
Personal Weather Stations






























Interactive Weather Map New forecast layout! Learn more

10-Day Weather Forecast

Advertisements
Track Severe Weather on mobile